Tabriz, Iran

3:35 PM IRDT on July 24, 2016 (GMT +0430)
Tabriz International | | Change Station

Elev 4459 ft 38.13 °N, 46.24 °E | Updated 5 minutes ago

Partly Cloudy
Partly Cloudy
88 °F
Feels Like 86 °F
N
21
Wind Variable Wind from NNE

Today
High -- | Low -- °F
--% Chance of Precip.
Yesterday
High -- | Low -- °F
Precip. -- in
Pressure 29.80 in
Visibility 6.2 miles
Clouds Few 3000 ft
Heat Index 86 °F
Dew Point 54 °F
Humidity 31%
Rainfall 0.00 in
Snow Depth Not available.
6:21 AM 8:41 PM
Waning Gibbous, 77% visible
METAR OITT 241100Z 03018KT 9999 FEW030 31/12 Q1009 A2981 NOSIG
Pressure 29.80 in
Visibility 6.2 miles
Clouds Few 3000 ft
Heat Index 86 °F
Dew Point 54 °F
Humidity 31%
Rainfall 0.00 in
Snow Depth Not available.
6:21 AM 8:41 PM
Waning Gibbous, 77% visible
METAR OITT 241100Z 03018KT 9999 FEW030 31/12 Q1009 A2981 NOSIG

10-Day Weather Forecast

No radar image for this location.
×

Almanac

Astronomy

Jul. 24, 2016 Rise Set
Actual Time
Civil Twilight
Nautical Twilight
Astronomical Twilight
Moon
Length of Visible Light
Length of Day
Tomorrow will be .
, % of the Moon is Illuminated

Today's Extremes

Country Highs Country Lows

Community

WunderPhotos

Upload Photos

1,927,047 photos uploaded!

WunderBlog® & News

Nearby

Air Quality

  Air Quality AQ Index Pollutant
Not available.

Snow Depth

Station Depth Elevation

Earthquake Activity

City Distance Mag. Time & Date
Minimum magnitude displayed is 2.5.

Coastal Water Temperatures

Place Temperature

Stations

Nearby Weather Stations

Station Location Temp. Windchill Dew Point Humidity Wind Precip. Elev Updated Type